Time;durP1;ratioP1;P1;durP2;ratioP2;P2;SDS_P1;SDS_P2;PMS_P1;PMS_P2;Temp;Humidity;BMP_temperature;BMP_pressure;BME280_temperature;BME280_humidity;BME280_pressure;Samples;Min_cycle;Max_cycle;Signal;HPM_P1;HPM_P2
2023/07/08 00:00:49;;;;;;;5.40;2.60;;;23.10;48.20;;;;;;5075481;28;20028;-63
2023/07/08 00:03:15;;;;;;;8.27;2.45;;;23.10;48.30;;;;;;5075665;28;20039;-63
2023/07/08 00:05:41;;;;;;;6.03;2.38;;;23.10;48.30;;;;;;5074659;28;20105;-63
2023/07/08 00:08:18;;;;;;;5.07;2.47;;;23.10;48.40;;;;;;5075615;28;20111;-63
2023/07/08 00:10:44;;;;;;;5.18;2.42;;;23.10;48.40;;;;;;5075496;28;20040;-63
2023/07/08 00:13:11;;;;;;;5.45;2.45;;;23.10;48.60;;;;;;5073068;28;20032;-63
2023/07/08 00:15:37;;;;;;;5.57;2.15;;;23.00;48.50;;;;;;5072801;28;20445;-63
2023/07/08 00:18:17;;;;;;;7.13;2.50;;;23.00;48.50;;;;;;5070712;28;20463;-63
2023/07/08 00:20:48;;;;;;;5.65;2.60;;;23.00;48.60;;;;;;5076218;28;20031;-63
2023/07/08 00:23:14;;;;;;;;;;;23.00;48.70;;;;;;5074919;28;20032;-63
2023/07/08 00:25:40;;;;;;;5.95;2.35;;;22.90;48.70;;;;;;5073422;28;20065;-63
2023/07/08 00:28:15;;;;;;;6.05;2.42;;;22.90;48.80;;;;;;5074446;28;20024;-64
2023/07/08 00:30:41;;;;;;;4.93;2.25;;;22.90;48.80;;;;;;5040519;28;20036;-63
2023/07/08 00:33:06;;;;;;;6.57;2.63;;;22.90;48.80;;;;;;5056714;28;20029;-63
2023/07/08 00:35:44;;;;;;;5.55;2.30;;;22.90;48.90;;;;;;5057109;28;20103;-63
2023/07/08 00:38:28;;;;;;;6.53;2.83;;;22.90;49.00;;;;;;5073654;28;20066;-63
2023/07/08 00:41:06;;;;;;;5.63;2.42;;;22.90;49.00;;;;;;5062390;28;20020;-63
2023/07/08 00:43:50;;;;;;;5.53;2.33;;;22.80;49.00;;;;;;5069480;28;20039;-63
2023/07/08 00:46:29;;;;;;;7.75;2.50;;;22.80;49.10;;;;;;5047397;28;20112;-63
2023/07/08 00:49:06;;;;;;;5.88;2.60;;;22.80;49.10;;;;;;5073838;28;20037;-63
2023/07/08 00:51:33;;;;;;;6.60;2.60;;;22.80;49.30;;;;;;5074055;28;20053;-63
2023/07/08 00:53:59;;;;;;;5.32;2.42;;;22.80;49.30;;;;;;5074798;28;20035;-63
2023/07/08 00:56:58;;;;;;;5.50;2.50;;;22.70;49.40;;;;;;5075484;28;20023;-63
2023/07/08 00:59:47;;;;;;;6.07;2.38;;;22.70;49.40;;;;;;5043440;28;20032;-63
2023/07/08 01:02:16;;;;;;;5.50;2.33;;;22.70;49.40;;;;;;5053978;28;20471;-63
2023/07/08 01:05:04;;;;;;;5.43;2.20;;;22.60;49.40;;;;;;5056951;28;20101;-63
2023/07/08 01:07:32;;;;;;;5.22;2.55;;;22.60;49.50;;;;;;5072702;28;20128;-63
2023/07/08 01:10:03;;;;;;;7.68;2.50;;;22.60;49.50;;;;;;5075490;28;20086;-63
2023/07/08 01:12:40;;;;;;;6.05;2.42;;;22.60;49.60;;;;;;5054393;28;20401;-63
2023/07/08 01:15:07;;;;;;;5.63;2.40;;;22.60;49.60;;;;;;5068979;28;20028;-63
2023/07/08 01:17:33;;;;;;;5.55;2.72;;;22.50;49.60;;;;;;5070881;28;20033;-63
2023/07/08 01:20:04;;;;;;;5.65;2.63;;;22.50;49.60;;;;;;5056673;28;20025;-63
2023/07/08 01:22:32;;;;;;;5.50;2.65;;;22.50;49.60;;;;;;5057222;28;20029;-63
2023/07/08 01:25:03;;;;;;;6.00;2.63;;;22.50;49.70;;;;;;5056463;28;20059;-63
2023/07/08 01:27:38;;;;;;;5.38;2.30;;;22.50;49.80;;;;;;5049159;28;20053;-63
2023/07/08 01:30:06;;;;;;;4.93;2.40;;;22.50;49.90;;;;;;5066420;28;20020;-63
2023/07/08 01:32:35;;;;;;;6.35;2.75;;;22.50;49.90;;;;;;5043085;28;20155;-65
2023/07/08 01:35:03;;;;;;;5.53;2.58;;;22.40;50.00;;;;;;5046756;28;20082;-63
2023/07/08 01:37:41;;;;;;;5.28;2.35;;;22.40;50.10;;;;;;5038553;28;20029;-63
2023/07/08 01:40:35;;;;;;;7.75;2.30;;;22.40;50.10;;;;;;5057862;28;20077;-63
2023/07/08 01:43:03;;;;;;;6.40;2.55;;;22.40;50.20;;;;;;5050745;28;20039;-63
2023/07/08 01:45:34;;;;;;;5.00;2.42;;;22.30;50.20;;;;;;5036692;28;20028;-63
2023/07/08 01:48:05;;;;;;;5.05;2.40;;;22.30;50.40;;;;;;5041796;28;20119;-63
2023/07/08 01:50:36;;;;;;;4.93;2.30;;;22.30;50.50;;;;;;5064945;28;20425;-63
2023/07/08 01:53:10;;;;;;;6.47;2.70;;;22.30;50.50;;;;;;5069524;28;20024;-63
2023/07/08 01:55:35;;;;;;;6.07;2.38;;;22.20;50.70;;;;;;5058573;28;20649;-63
2023/07/08 01:58:01;;;;;;;5.38;2.15;;;22.20;50.80;;;;;;5021775;28;20059;-63
2023/07/08 02:00:27;;;;;;;5.13;2.50;;;22.20;50.90;;;;;;5059209;28;20044;-63
2023/07/08 02:02:53;;;;;;;4.40;2.17;;;22.10;50.90;;;;;;5059265;28;20032;-63
2023/07/08 02:05:18;;;;;;;8.23;2.58;;;22.10;50.90;;;;;;5056231;28;20024;-63
2023/07/08 02:07:44;;;;;;;5.80;2.60;;;22.10;51.00;;;;;;5055209;28;20025;-63
2023/07/08 02:10:10;;;;;;;6.03;2.42;;;22.10;51.10;;;;;;5055810;28;20516;-63
2023/07/08 02:12:36;;;;;;;5.60;2.40;;;22.10;51.10;;;;;;5072844;28;20430;-63
2023/07/08 02:15:03;;;;;;;7.47;2.63;;;22.10;51.20;;;;;;5055164;28;20056;-63
2023/07/08 02:17:29;;;;;;;5.60;2.28;;;22.10;51.40;;;;;;5073675;28;20047;-63
2023/07/08 02:19:55;;;;;;;7.82;2.83;;;22.10;51.40;;;;;;5073376;28;20028;-64
2023/07/08 02:22:21;;;;;;;6.13;2.60;;;22.00;51.50;;;;;;5038336;28;20028;-63
2023/07/08 02:24:47;;;;;;;6.07;2.92;;;22.00;51.60;;;;;;5051238;28;20449;-63
2023/07/08 02:27:14;;;;;;;6.03;2.65;;;22.00;51.70;;;;;;5066981;28;20083;-63
2023/07/08 02:29:40;;;;;;;5.20;2.40;;;22.00;51.80;;;;;;5055199;28;20031;-63
2023/07/08 02:32:06;;;;;;;6.53;3.17;;;22.00;51.80;;;;;;5051736;28;20025;-63
2023/07/08 02:34:33;;;;;;;5.93;2.67;;;21.90;51.80;;;;;;5072174;28;20425;-63
2023/07/08 02:36:59;;;;;;;8.10;2.50;;;21.90;51.90;;;;;;5073308;28;20031;-63
2023/07/08 02:39:24;;;;;;;6.00;2.40;;;21.90;51.90;;;;;;5073047;28;20052;-63
2023/07/08 02:41:50;;;;;;;5.07;2.50;;;21.90;52.60;;;;;;5041462;28;20045;-63
2023/07/08 02:44:16;;;;;;;6.72;2.85;;;21.90;52.20;;;;;;5071097;28;20449;-63
2023/07/08 02:46:41;;;;;;;5.72;2.60;;;21.80;52.30;;;;;;5070953;28;20078;-63
2023/07/08 02:49:07;;;;;;;6.40;2.95;;;21.80;52.30;;;;;;5071412;28;20024;-63
2023/07/08 02:51:33;;;;;;;6.53;2.42;;;21.80;52.40;;;;;;5055168;28;20025;-63
2023/07/08 02:53:59;;;;;;;5.78;2.40;;;21.80;52.50;;;;;;5068121;28;20040;-63
2023/07/08 02:56:26;;;;;;;5.75;2.80;;;21.80;52.50;;;;;;5055897;28;20027;-63
2023/07/08 02:58:52;;;;;;;5.70;2.60;;;21.80;52.60;;;;;;5051460;28;20327;-63
2023/07/08 03:01:18;;;;;;;8.63;2.70;;;21.70;52.50;;;;;;5052824;28;20025;-63
2023/07/08 03:03:48;;;;;;;5.82;2.72;;;21.70;52.60;;;;;;5054681;28;20449;-63
2023/07/08 03:06:14;;;;;;;8.13;2.88;;;21.70;52.60;;;;;;5054224;28;20048;-63
2023/07/08 03:08:40;;;;;;;6.25;2.83;;;21.70;52.70;;;;;;5072168;28;20036;-63
2023/07/08 03:11:08;;;;;;;5.28;2.58;;;21.70;52.90;;;;;;5069185;28;20395;-63
2023/07/08 03:13:34;;;;;;;5.07;2.75;;;21.70;52.90;;;;;;5073345;28;20081;-63
2023/07/08 03:16:02;;;;;;;6.32;2.97;;;21.70;53.60;;;;;;5054902;28;20029;-63
2023/07/08 03:18:29;;;;;;;7.68;3.03;;;21.60;53.00;;;;;;5039318;28;20043;-63
2023/07/08 03:20:57;;;;;;;6.00;3.00;;;21.60;53.00;;;;;;5070552;28;20515;-63
2023/07/08 03:23:24;;;;;;;7.57;2.40;;;21.60;53.10;;;;;;5055437;28;20032;-63
2023/07/08 03:25:52;;;;;;;7.90;2.70;;;21.60;53.10;;;;;;5054560;28;20048;-63
2023/07/08 03:28:19;;;;;;;8.07;2.65;;;21.60;53.20;;;;;;5055292;28;20021;-63
2023/07/08 03:30:45;;;;;;;5.28;2.38;;;21.60;53.30;;;;;;5052031;28;20465;-63
2023/07/08 03:33:12;;;;;;;6.00;2.80;;;21.60;53.30;;;;;;5053895;28;20349;-63
2023/07/08 03:35:40;;;;;;;6.63;2.58;;;21.50;53.30;;;;;;5054055;28;20024;-63
2023/07/08 03:38:06;;;;;;;6.68;3.00;;;21.50;53.40;;;;;;5055165;28;20027;-63
2023/07/08 03:40:32;;;;;;;5.80;2.20;;;21.50;53.50;;;;;;5054508;28;20025;-63
2023/07/08 03:42:58;;;;;;;5.93;2.75;;;21.50;53.80;;;;;;5071803;28;20032;-63
2023/07/08 03:45:27;;;;;;;6.22;2.72;;;21.50;53.60;;;;;;5052695;28;20017;-63
2023/07/08 03:47:53;;;;;;;7.53;2.72;;;21.50;53.60;;;;;;5056398;28;20396;-63
2023/07/08 03:50:21;;;;;;;5.07;2.60;;;21.50;53.60;;;;;;5074551;28;20103;-63
2023/07/08 03:52:49;;;;;;;5.68;2.80;;;21.40;53.70;;;;;;5075887;28;20335;-63
2023/07/08 03:55:15;;;;;;;7.72;2.72;;;21.40;53.70;;;;;;5056465;28;20043;-63
2023/07/08 03:57:42;;;;;;;6.78;2.85;;;21.40;53.70;;;;;;5058160;28;20437;-63
2023/07/08 04:00:11;;;;;;;6.45;2.67;;;21.40;53.80;;;;;;5057264;28;20016;-63
2023/07/08 04:02:40;;;;;;;6.38;2.78;;;21.40;53.80;;;;;;5076564;28;20041;-63
2023/07/08 04:05:15;;;;;;;7.00;3.00;;;21.40;53.90;;;;;;5056301;28;20021;-63
2023/07/08 04:07:41;;;;;;;5.28;2.50;;;21.40;53.90;;;;;;5058161;28;20405;-63
2023/07/08 04:10:08;;;;;;;6.05;2.58;;;21.40;53.90;;;;;;5075459;28;20032;-63
2023/07/08 04:12:34;;;;;;;6.78;2.65;;;21.40;54.00;;;;;;5074286;28;20038;-63
2023/07/08 04:15:00;;;;;;;6.55;2.85;;;21.40;54.60;;;;;;5047013;28;20029;-63
2023/07/08 04:17:25;;;;;;;6.55;2.92;;;21.40;54.10;;;;;;5074431;28;20321;-63
2023/07/08 04:19:51;;;;;;;5.05;2.50;;;21.40;54.20;;;;;;5074778;28;20040;-63
2023/07/08 04:22:17;;;;;;;4.80;2.50;;;21.40;54.20;;;;;;5074942;28;20032;-63
2023/07/08 04:24:43;;;;;;;6.40;2.55;;;21.40;54.20;;;;;;5075944;28;20361;-65
2023/07/08 04:27:17;;;;;;;8.18;3.05;;;21.40;54.20;;;;;;5074381;28;20035;-63
2023/07/08 04:29:43;;;;;;;6.50;2.85;;;21.40;54.40;;;;;;5073298;28;20035;-63
2023/07/08 04:32:10;;;;;;;6.53;2.30;;;21.40;54.40;;;;;;5074509;28;20485;-63
2023/07/08 04:34:35;;;;;;;5.32;2.42;;;21.40;54.40;;;;;;5058002;28;20113;-66
2023/07/08 04:37:01;;;;;;;5.57;2.63;;;21.40;54.40;;;;;;5075303;28;20061;-62
2023/07/08 04:39:29;;;;;;;4.55;2.40;;;21.40;54.50;;;;;;5075607;28;20194;-63
2023/07/08 04:41:55;;;;;;;7.55;2.80;;;21.40;54.60;;;;;;5075981;28;20040;-63
2023/07/08 04:44:21;;;;;;;6.25;2.63;;;21.40;54.60;;;;;;5058768;28;20028;-63
2023/07/08 04:46:54;;;;;;;6.95;2.85;;;21.40;54.60;;;;;;5076118;28;20032;-63
2023/07/08 04:49:20;;;;;;;7.80;2.75;;;21.40;54.70;;;;;;5057233;28;20036;-63
2023/07/08 04:51:46;;;;;;;6.70;3.00;;;21.50;54.70;;;;;;5075179;28;20036;-63
2023/07/08 04:54:12;;;;;;;7.35;2.78;;;21.50;54.60;;;;;;5058205;28;20361;-63
2023/07/08 04:56:41;;;;;;;6.15;2.55;;;21.50;54.60;;;;;;5075653;28;20033;-63
2023/07/08 04:59:09;;;;;;;5.60;2.63;;;21.50;54.70;;;;;;5074203;28;20024;-63
2023/07/08 05:01:37;;;;;;;6.05;2.45;;;21.50;54.70;;;;;;5053758;28;20368;-61
2023/07/08 05:04:05;;;;;;;9.77;2.78;;;21.50;54.70;;;;;;5056272;28;20052;-62
2023/07/08 05:06:31;;;;;;;6.55;2.90;;;21.50;54.90;;;;;;5071099;28;20048;-63
2023/07/08 05:08:58;;;;;;;4.90;2.40;;;21.50;54.90;;;;;;5075153;28;20610;-62
2023/07/08 05:11:24;;;;;;;5.45;2.38;;;21.50;54.90;;;;;;5072697;28;20497;-62
2023/07/08 05:13:50;;;;;;;8.93;2.60;;;21.50;54.90;;;;;;5072829;28;20111;-62
2023/07/08 05:16:16;;;;;;;7.07;2.60;;;21.50;55.00;;;;;;5073876;28;20495;-63
2023/07/08 05:18:42;;;;;;;6.55;2.72;;;21.60;54.90;;;;;;5070438;28;20091;-62
2023/07/08 05:21:09;;;;;;;6.05;2.40;;;21.50;54.90;;;;;;5073179;28;20041;-62
2023/07/08 05:23:35;;;;;;;5.38;2.38;;;21.60;55.10;;;;;;5072805;28;20043;-62
2023/07/08 05:26:03;;;;;;;5.50;2.70;;;21.70;55.10;;;;;;5073329;28;20028;-62
2023/07/08 05:28:29;;;;;;;5.80;2.60;;;21.80;54.90;;;;;;5072753;28;20021;-62
2023/07/08 05:30:55;;;;;;;6.30;2.40;;;21.90;54.80;;;;;;5072599;28;20086;-62
2023/07/08 05:33:26;;;;;;;6.45;3.05;;;21.90;54.60;;;;;;5069733;28;20379;-63
2023/07/08 05:35:52;;;;;;;8.02;2.67;;;22.00;54.40;;;;;;5065646;28;20032;-61
2023/07/08 05:38:18;;;;;;;5.40;2.47;;;22.10;54.30;;;;;;5072053;28;20020;-63
2023/07/08 05:40:49;;;;;;;5.82;2.97;;;22.20;54.30;;;;;;5057021;28;20032;-63
2023/07/08 05:43:16;;;;;;;5.70;2.35;;;22.30;54.30;;;;;;5073935;28;20074;-63
2023/07/08 05:45:42;;;;;;;6.32;2.75;;;22.30;54.20;;;;;;5073087;28;20115;-63
2023/07/08 05:48:07;;;;;;;5.88;3.03;;;22.40;54.10;;;;;;5074185;28;20060;-63
2023/07/08 05:50:33;;;;;;;6.60;2.33;;;22.40;53.90;;;;;;5056669;28;20074;-62
2023/07/08 05:52:59;;;;;;;7.00;2.63;;;22.50;53.80;;;;;;5054712;28;20441;-62
2023/07/08 05:55:25;;;;;;;6.18;2.60;;;22.50;53.70;;;;;;5065091;28;20051;-62
2023/07/08 05:57:50;;;;;;;5.85;2.67;;;22.60;53.60;;;;;;5067693;28;20033;-62
2023/07/08 06:00:16;;;;;;;6.57;2.60;;;22.70;53.60;;;;;;5068668;28;20423;-62
2023/07/08 06:02:42;;;;;;;5.63;2.78;;;22.80;53.50;;;;;;5067792;28;20112;-62
2023/07/08 06:05:08;;;;;;;6.85;2.53;;;22.80;53.40;;;;;;5066180;28;20392;-62
2023/07/08 06:07:34;;;;;;;5.57;2.65;;;22.90;53.30;;;;;;5048141;28;20053;-62
2023/07/08 06:09:59;;;;;;;5.13;2.20;;;23.00;53.30;;;;;;5067465;28;20028;-62
2023/07/08 06:12:26;;;;;;;5.95;2.75;;;23.00;53.20;;;;;;5067727;28;20024;-62
2023/07/08 06:14:51;;;;;;;6.30;2.90;;;23.10;53.10;;;;;;5067456;28;20119;-62
2023/07/08 06:17:17;;;;;;;6.28;2.67;;;23.10;52.90;;;;;;5065166;28;20123;-62
2023/07/08 06:19:44;;;;;;;6.57;2.60;;;23.20;53.00;;;;;;5066155;28;20101;-62
2023/07/08 06:22:10;;;;;;;5.55;2.22;;;23.30;53.00;;;;;;5064343;28;20695;-62
2023/07/08 06:24:35;;;;;;;4.93;2.13;;;23.40;52.90;;;;;;5067037;28;20056;-62
2023/07/08 06:27:01;;;;;;;5.57;2.47;;;23.50;52.90;;;;;;5069416;28;20311;-62
2023/07/08 06:29:27;;;;;;;5.22;2.35;;;23.60;52.80;;;;;;5065681;28;20024;-62
2023/07/08 06:31:53;;;;;;;5.80;2.60;;;23.70;52.60;;;;;;5045300;28;20021;-62
2023/07/08 06:34:19;;;;;;;6.22;2.80;;;23.70;52.40;;;;;;5070955;28;20094;-62
2023/07/08 06:36:45;;;;;;;6.80;2.78;;;23.70;52.40;;;;;;5068989;28;20078;-62
2023/07/08 06:39:11;;;;;;;5.63;2.47;;;23.80;52.40;;;;;;5068361;28;20460;-62
2023/07/08 06:41:37;;;;;;;6.13;2.70;;;23.80;52.30;;;;;;5069574;28;20086;-62
2023/07/08 06:44:04;;;;;;;5.88;2.50;;;23.90;52.20;;;;;;5071689;28;20034;-62
2023/07/08 06:46:31;;;;;;;7.45;2.67;;;24.00;52.20;;;;;;5066936;28;20029;-62
2023/07/08 06:48:57;;;;;;;6.10;2.75;;;24.00;52.20;;;;;;5069829;28;20383;-62
2023/07/08 06:51:23;;;;;;;5.72;2.67;;;24.20;52.10;;;;;;5073116;28;20028;-62
2023/07/08 06:53:48;;;;;;;6.63;2.70;;;24.30;52.10;;;;;;5073813;28;20040;-62
2023/07/08 06:56:14;;;;;;;5.72;2.50;;;24.50;52.10;;;;;;5074267;28;20441;-62
2023/07/08 06:58:40;;;;;;;4.80;2.67;;;24.60;52.00;;;;;;5074126;28;20175;-62
2023/07/08 07:01:06;;;;;;;6.38;2.80;;;24.70;51.70;;;;;;5039237;28;20038;-62
2023/07/08 07:03:31;;;;;;;7.13;3.05;;;24.90;51.50;;;;;;5068021;28;20032;-62
2023/07/08 07:05:57;;;;;;;5.18;2.47;;;25.00;51.50;;;;;;5073991;28;20047;-62
2023/07/08 07:08:23;;;;;;;7.25;3.00;;;25.10;51.50;;;;;;5073929;28;20021;-62
2023/07/08 07:10:48;;;;;;;5.90;2.83;;;25.20;51.50;;;;;;5072021;28;20021;-62
2023/07/08 07:13:14;;;;;;;7.28;2.90;;;25.30;51.40;;;;;;5073458;28;20032;-62
2023/07/08 07:15:40;;;;;;;6.72;2.72;;;25.50;51.30;;;;;;5073553;28;20033;-62
2023/07/08 07:18:06;;;;;;;6.45;2.90;;;25.60;51.20;;;;;;5073713;28;20024;-62
2023/07/08 07:20:33;;;;;;;6.43;2.72;;;25.70;51.00;;;;;;5073821;28;20032;-62
2023/07/08 07:22:59;;;;;;;6.70;2.95;;;25.90;50.90;;;;;;5073231;28;20093;-62
2023/07/08 07:25:25;;;;;;;6.10;3.10;;;26.00;50.60;;;;;;5077722;28;20430;-62
2023/07/08 07:27:50;;;;;;;5.82;2.72;;;26.10;50.40;;;;;;5078019;28;20091;-62
2023/07/08 07:30:16;;;;;;;5.85;2.67;;;26.20;50.40;;;;;;5077811;28;20020;-62
2023/07/08 07:32:42;;;;;;;5.47;2.50;;;26.30;50.20;;;;;;5059049;28;20025;-62
2023/07/08 07:35:14;;;;;;;7.30;2.72;;;26.50;50.30;;;;;;5076621;28;20096;-62
2023/07/08 07:37:41;;;;;;;6.47;3.00;;;26.60;50.30;;;;;;5077572;28;20098;-62
2023/07/08 07:40:12;;;;;;;5.82;2.85;;;26.80;50.20;;;;;;5077415;28;20024;-62
2023/07/08 07:42:40;;;;;;;6.07;2.67;;;26.90;49.90;;;;;;5076791;28;20086;-62
2023/07/08 07:45:06;;;;;;;5.93;2.70;;;27.10;49.90;;;;;;5072406;28;20040;-62
2023/07/08 07:47:32;;;;;;;6.68;2.55;;;27.20;49.70;;;;;;5077230;28;20067;-62
2023/07/08 07:49:58;;;;;;;5.30;2.50;;;27.30;49.40;;;;;;5076973;28;20056;-62
2023/07/08 07:52:25;;;;;;;6.25;2.90;;;27.40;49.20;;;;;;5077584;28;20037;-62
2023/07/08 07:54:54;;;;;;;5.85;2.80;;;27.60;49.10;;;;;;5075235;28;20444;-62
2023/07/08 07:57:21;;;;;;;5.85;2.60;;;27.70;49.00;;;;;;5077040;28;20028;-62
2023/07/08 07:59:48;;;;;;;6.00;2.88;;;27.80;48.60;;;;;;5077045;28;20064;-62
2023/07/08 08:02:15;;;;;;;6.05;2.78;;;27.90;48.50;;;;;;5076998;28;20025;-62
2023/07/08 08:04:40;;;;;;;6.43;2.78;;;28.10;48.40;;;;;;5075468;28;20449;-62
2023/07/08 08:07:06;;;;;;;5.82;2.53;;;28.20;48.30;;;;;;5074959;28;20045;-62
2023/07/08 08:09:32;;;;;;;5.95;2.63;;;28.30;48.20;;;;;;5046584;28;20453;-62
2023/07/08 08:11:58;;;;;;;7.63;2.92;;;28.40;48.00;;;;;;5076757;28;20024;-62
2023/07/08 08:14:24;;;;;;;5.75;2.72;;;28.50;47.80;;;;;;5075807;28;20024;-62
2023/07/08 08:16:50;;;;;;;5.85;2.70;;;28.60;47.70;;;;;;5065997;28;20391;-62
2023/07/08 08:19:15;;;;;;;6.22;2.58;;;28.70;47.60;;;;;;5074422;28;20032;-62
2023/07/08 08:21:41;;;;;;;6.38;3.03;;;28.80;47.50;;;;;;5076494;28;20455;-62
2023/07/08 08:24:07;;;;;;;7.30;3.25;;;28.90;47.40;;;;;;5076566;28;20043;-62
2023/07/08 08:26:33;;;;;;;6.47;2.97;;;29.00;47.80;;;;;;5074795;28;20028;-62
2023/07/08 08:28:59;;;;;;;6.40;2.95;;;29.10;47.00;;;;;;5076728;28;20036;-62
2023/07/08 08:31:24;;;;;;;6.85;2.95;;;29.10;47.10;;;;;;5076159;28;20099;-62
2023/07/08 08:33:53;;;;;;;7.40;2.97;;;29.20;47.10;;;;;;5075816;28;20133;-62
2023/07/08 08:36:20;;;;;;;7.43;3.00;;;29.30;47.10;;;;;;5075169;28;20111;-62
2023/07/08 08:38:46;;;;;;;6.57;2.78;;;29.30;47.10;;;;;;5062185;28;20519;-62
2023/07/08 08:41:14;;;;;;;7.70;3.35;;;29.40;47.00;;;;;;5076407;28;20052;-62
2023/07/08 08:43:42;;;;;;;5.82;2.80;;;29.50;47.10;;;;;;5076424;28;20032;-62
2023/07/08 08:46:26;;;;;;;5.82;2.92;;;29.60;46.80;;;;;;5075369;28;20021;-62
2023/07/08 08:49:01;;;;;;;6.80;3.17;;;29.60;46.70;;;;;;5075066;28;20040;-62
2023/07/08 08:51:31;;;;;;;8.90;3.15;;;29.70;46.80;;;;;;5076238;28;20035;-62
2023/07/08 08:53:58;;;;;;;6.57;3.05;;;29.80;46.80;;;;;;5075772;28;20361;-62
2023/07/08 08:56:32;;;;;;;6.55;2.88;;;29.90;46.60;;;;;;5075067;28;20029;-62
2023/07/08 08:59:22;;;;;;;6.55;3.17;;;30.00;46.60;;;;;;5058010;28;20138;-62
2023/07/08 09:01:50;;;;;;;7.07;3.03;;;30.10;46.70;;;;;;5076130;28;20337;-62
2023/07/08 09:04:32;;;;;;;6.20;3.08;;;30.20;46.70;;;;;;5057976;28;20021;-62
2023/07/08 09:07:07;;;;;;;5.95;2.90;;;30.30;46.50;;;;;;5074562;28;20049;-62
2023/07/08 09:09:55;;;;;;;6.72;2.90;;;30.40;46.50;;;;;;5063434;28;20028;-62
2023/07/08 09:12:26;;;;;;;6.97;3.20;;;30.50;46.20;;;;;;5075614;28;20033;-62
2023/07/08 09:14:51;;;;;;;6.97;3.15;;;30.60;46.00;;;;;;5075426;28;20032;-62
2023/07/08 09:17:34;;;;;;;6.47;3.75;;;30.60;46.20;;;;;;5073818;28;20016;-62
2023/07/08 09:20:03;;;;;;;8.38;3.72;;;30.70;46.10;;;;;;5068939;28;20024;-62
2023/07/08 09:22:43;;;;;;;7.22;3.00;;;30.90;45.80;;;;;;5075309;28;20032;-62
2023/07/08 09:25:15;;;;;;;;;;;31.00;45.90;;;;;;5076020;28;20029;-62
2023/07/08 09:27:42;;;;;;;7.53;3.22;;;31.10;45.90;;;;;;5075388;28;19916;-62
2023/07/08 09:30:16;;;;;;;7.22;2.97;;;31.20;45.70;;;;;;5074087;28;20322;-62
2023/07/08 09:32:41;;;;;;;7.68;3.42;;;31.20;45.40;;;;;;5075083;28;20036;-62
2023/07/08 09:35:09;;;;;;;7.32;3.40;;;31.30;45.20;;;;;;5070125;28;20024;-62
2023/07/08 09:37:37;;;;;;;8.63;3.40;;;31.40;45.00;;;;;;5065513;28;20043;-62
2023/07/08 09:40:29;;;;;;;7.85;3.50;;;31.40;45.00;;;;;;5074876;28;20028;-62
2023/07/08 09:43:11;;;;;;;9.35;3.58;;;31.60;44.70;;;;;;5073310;28;20032;-62
2023/07/08 09:45:44;;;;;;;7.45;3.70;;;31.60;44.40;;;;;;5060698;28;20458;-62
2023/07/08 09:48:24;;;;;;;7.63;3.60;;;31.70;44.40;;;;;;5074924;28;20105;-62
2023/07/08 09:50:52;;;;;;;8.00;4.10;;;31.90;44.00;;;;;;5062922;28;20047;-62
2023/07/08 09:53:18;;;;;;;7.18;3.80;;;31.90;44.00;;;;;;5072506;28;20020;-62
2023/07/08 09:55:45;;;;;;;7.03;3.40;;;32.00;44.10;;;;;;5074414;28;20357;-62
2023/07/08 09:58:18;;;;;;;7.45;3.45;;;32.10;43.80;;;;;;5075277;28;20150;-62
2023/07/08 10:00:49;;;;;;;7.65;3.78;;;32.20;43.70;;;;;;5074936;28;20043;-62
2023/07/08 10:03:21;;;;;;;;;;;32.20;43.60;;;;;;5073922;28;20043;-62
2023/07/08 10:05:48;;;;;;;6.97;3.70;;;32.30;43.60;;;;;;5074339;28;20289;-62
2023/07/08 10:08:20;;;;;;;6.43;3.50;;;32.30;43.30;;;;;;5074800;28;20028;-62
2023/07/08 10:11:03;;;;;;;7.07;3.90;;;32.40;43.10;;;;;;5074327;28;20043;-62
2023/07/08 10:13:43;;;;;;;9.18;4.10;;;32.40;43.10;;;;;;5072705;28;20458;-62
2023/07/08 10:16:20;;;;;;;8.55;3.55;;;32.50;43.00;;;;;;5056766;28;20035;-62
2023/07/08 10:18:46;;;;;;;9.13;4.10;;;32.60;42.90;;;;;;5074523;28;20053;-62
2023/07/08 10:21:23;;;;;;;9.02;3.97;;;32.60;42.80;;;;;;5074494;28;20475;-62
2023/07/08 10:23:59;;;;;;;6.88;3.67;;;32.70;42.60;;;;;;5072552;28;20036;-62
2023/07/08 10:26:31;;;;;;;8.27;4.00;;;32.60;42.10;;;;;;5068985;28;20173;-62
2023/07/08 10:29:07;;;;;;;9.23;3.97;;;32.70;42.40;;;;;;5056787;28;20036;-62
2023/07/08 10:31:46;;;;;;;8.63;3.90;;;32.60;42.30;;;;;;5061262;28;20033;-62
2023/07/08 10:34:48;;;;;;;7.25;3.70;;;32.70;42.60;;;;;;5072634;28;20031;-62
2023/07/08 10:37:26;;;;;;;8.73;4.03;;;32.80;42.70;;;;;;5062251;28;20020;-62
2023/07/08 10:40:01;;;;;;;7.10;3.85;;;32.80;42.50;;;;;;5074233;28;20044;-62
2023/07/08 10:42:47;;;;;;;7.03;3.63;;;32.90;42.30;;;;;;5074507;28;20107;-62
2023/07/08 10:45:35;;;;;;;10.25;4.15;;;33.00;42.60;;;;;;5074007;28;20017;-62
2023/07/08 10:48:19;;;;;;;8.02;3.72;;;33.10;42.80;;;;;;5072438;28;20038;-62
2023/07/08 10:50:44;;;;;;;7.88;4.20;;;33.10;42.70;;;;;;5060962;28;20404;-63
2023/07/08 10:53:32;;;;;;;6.88;3.70;;;33.20;42.80;;;;;;5074028;28;20044;-62
2023/07/08 10:56:06;;;;;;;7.63;4.32;;;33.20;42.40;;;;;;5074242;28;20048;-62
2023/07/08 10:58:41;;;;;;;9.45;4.65;;;33.30;42.30;;;;;;5077870;28;20032;-63
2023/07/08 11:01:34;;;;;;;7.43;3.75;;;33.30;42.30;;;;;;5078571;28;20056;-63
2023/07/08 11:04:24;;;;;;;7.05;3.50;;;33.40;42.40;;;;;;5078335;28;20032;-63
2023/07/08 11:06:56;;;;;;;8.27;4.35;;;33.40;42.40;;;;;;5077439;28;20052;-62
2023/07/08 11:09:44;;;;;;;7.55;4.03;;;33.50;42.50;;;;;;5064295;28;20020;-62
2023/07/08 11:12:17;;;;;;;6.93;4.03;;;33.50;42.60;;;;;;5060487;28;20044;-62
2023/07/08 11:15:03;;;;;;;7.95;3.95;;;33.50;42.50;;;;;;5077273;28;20140;-62
2023/07/08 11:17:38;;;;;;;7.68;4.43;;;33.60;42.50;;;;;;5078059;28;20125;-62
2023/07/08 11:20:19;;;;;;;8.60;3.90;;;33.60;42.30;;;;;;5077967;28;20145;-62
2023/07/08 11:23:10;;;;;;;8.18;4.57;;;33.60;41.90;;;;;;5077904;28;20333;-62
2023/07/08 11:25:38;;;;;;;7.43;4.25;;;33.60;41.90;;;;;;5075927;28;20032;-62
2023/07/08 11:28:08;;;;;;;9.05;4.75;;;33.60;42.10;;;;;;5077937;28;20085;-63
2023/07/08 11:30:39;;;;;;;7.78;4.18;;;33.70;42.30;;;;;;5078227;28;20039;-62
2023/07/08 11:33:10;;;;;;;8.65;4.15;;;33.70;42.10;;;;;;5073750;28;20032;-62
2023/07/08 11:35:42;;;;;;;8.25;3.83;;;33.70;41.90;;;;;;5072798;28;20099;-62
2023/07/08 11:38:16;;;;;;;8.65;4.15;;;33.70;41.70;;;;;;5071355;28;20037;-62
2023/07/08 11:41:01;;;;;;;7.63;4.18;;;33.70;41.40;;;;;;5069806;28;20085;-62
2023/07/08 11:43:34;;;;;;;7.30;3.88;;;33.60;41.50;;;;;;5071634;28;20055;-62
2023/07/08 11:46:07;;;;;;;7.72;4.10;;;33.70;41.60;;;;;;5071731;28;20085;-62
2023/07/08 11:48:42;;;;;;;7.75;4.10;;;33.70;41.80;;;;;;5068203;28;20456;-63
2023/07/08 11:51:09;;;;;;;9.38;4.43;;;33.70;41.60;;;;;;5070919;28;20059;-63
2023/07/08 11:53:46;;;;;;;8.05;4.57;;;33.70;41.60;;;;;;5070288;28;20028;-62
2023/07/08 11:56:20;;;;;;;8.13;4.10;;;33.60;41.60;;;;;;5070830;28;20036;-62
2023/07/08 11:58:57;;;;;;;7.68;4.28;;;33.60;41.60;;;;;;5071301;28;20024;-63
2023/07/08 12:01:27;;;;;;;6.93;3.80;;;33.50;41.50;;;;;;5070387;28;20079;-62
2023/07/08 12:04:16;;;;;;;8.15;4.20;;;33.50;41.60;;;;;;5070348;28;20433;-62
2023/07/08 12:06:46;;;;;;;8.02;4.10;;;33.50;41.70;;;;;;5073408;28;20090;-62
2023/07/08 12:09:27;;;;;;;7.72;4.40;;;33.30;41.70;;;;;;5070801;28;20024;-62
2023/07/08 12:12:01;;;;;;;7.18;4.53;;;33.30;41.70;;;;;;5069883;28;20116;-62
2023/07/08 12:14:28;;;;;;;7.97;4.53;;;33.20;41.60;;;;;;5069837;28;20115;-63
2023/07/08 12:16:55;;;;;;;8.43;3.90;;;33.20;41.90;;;;;;5072645;28;20303;-62
2023/07/08 12:19:25;;;;;;;7.75;3.83;;;33.10;42.00;;;;;;5071573;28;20090;-62
2023/07/08 12:21:51;;;;;;;7.50;3.97;;;33.10;42.30;;;;;;5070130;28;20125;-62
2023/07/08 12:24:18;;;;;;;7.97;4.32;;;33.00;42.50;;;;;;5068409;28;20029;-62
2023/07/08 12:26:44;;;;;;;8.15;4.38;;;33.00;42.40;;;;;;5070163;28;20093;-62
2023/07/08 12:29:13;;;;;;;9.40;4.63;;;32.90;42.10;;;;;;5070058;28;20028;-62
2023/07/08 12:31:40;;;;;;;9.43;4.78;;;32.80;42.20;;;;;;5069602;28;20036;-62
2023/07/08 12:34:12;;;;;;;8.30;4.28;;;32.70;42.30;;;;;;5069473;28;20133;-63
2023/07/08 12:36:38;;;;;;;8.50;4.72;;;32.70;42.40;;;;;;5070085;28;20039;-62
2023/07/08 12:39:05;;;;;;;7.80;4.35;;;32.60;42.50;;;;;;5069782;28;20107;-63
2023/07/08 12:41:34;;;;;;;7.93;4.40;;;32.60;42.80;;;;;;5051831;28;20413;-62
2023/07/08 12:44:01;;;;;;;8.38;4.85;;;32.50;42.40;;;;;;5068195;28;20497;-62
2023/07/08 12:46:28;;;;;;;7.57;4.43;;;32.40;42.10;;;;;;5068506;28;20097;-62
2023/07/08 12:48:54;;;;;;;9.23;4.72;;;32.40;42.30;;;;;;5064365;28;20497;-62
2023/07/08 12:51:24;;;;;;;12.18;4.68;;;32.30;42.40;;;;;;5046217;28;20112;-62
2023/07/08 12:53:51;;;;;;;13.43;5.35;;;32.30;42.70;;;;;;5063544;28;20354;-62
2023/07/08 12:56:19;;;;;;;8.15;4.85;;;32.30;42.70;;;;;;5066851;28;20060;-62
2023/07/08 12:58:49;;;;;;;9.13;4.75;;;32.30;42.70;;;;;;5070058;28;20103;-62
2023/07/08 13:01:19;;;;;;;10.63;4.85;;;32.20;42.70;;;;;;5047148;28;20104;-62